PWSweather.com
Personal Weather Stations
Station Observations

YeovilGB

Lat: 50.949, Lon: -2.627

Elevation: 70

Station Type: Vantage Pro

http://www.yeovil-weather.me.uk/

Latest ConditionsUpdated 2:30:05 PM GMT Tuesday, Jul 23, 2019
Currently Today's Max Today's Min Today's Average
Temperature 88.8°F31.6°C 89.1°F31.7°C 56.7°F13.7°C 69.8°F21.0°C
Dew Point 62.1°F16.7°C 66.2°F19.0°C 55.4°F13.0°C 60.9°F16.1°C
Winds 9.2 mph SE14.8 kmh SE 9.2 mph -14.8 kmh - - 2.0 mph 3.2 kmh
Wind Gusts 11.5 mph18.5 kmh 18.4 mph29.6 kmh - -
Humidity 41% 97% 39% 78%
Pressure 29.94 in1013.9 mb 30.15 in1021.0 mb 29.94 in1013.9 mb -
Hour Temp Dew Point Humidity Winds Wind Gusts Pressure Precip Precip Rate Daily Precip Total
02:30 PM 88.8°F31.6°C 62.1°F16.7°C 41% 9.2 mph SE14.8 kmh SE 11.5 mph18.5 kmh 29.94 in1013.9 mb - 0.00 in0.0 mm 0.00 in0.0 mm
02:20 PM 88.9°F31.6°C 62.2°F16.8°C 41% 6.9 mph SE11.1 kmh SE 12.7 mph20.4 kmh 29.94 in1013.9 mb - 0.00 in0.0 mm 0.00 in0.0 mm
02:10 PM 89.1°F31.7°C 60.9°F16.1°C 39% 8.1 mph SE13.0 kmh SE 11.5 mph18.5 kmh 29.94 in1013.9 mb - 0.00 in0.0 mm 0.00 in0.0 mm
02:00 PM 88.9°F31.6°C 61.5°F16.4°C 40% 8.1 mph SE13.0 kmh SE 12.7 mph20.4 kmh 29.95 in1014.2 mb - 0.00 in0.0 mm 0.00 in0.0 mm
01:50 PM 88.9°F31.6°C 60.8°F16.0°C 39% 8.1 mph ESE13.0 kmh ESE 10.4 mph16.7 kmh 29.95 in1014.2 mb - 0.00 in0.0 mm 0.00 in0.0 mm
01:40 PM 88.9°F31.6°C 61.4°F16.3°C 40% 6.9 mph E11.1 kmh E 11.5 mph18.5 kmh 29.95 in1014.2 mb - 0.00 in0.0 mm 0.00 in0.0 mm
01:30 PM 88.3°F31.3°C 61.6°F16.4°C 41% 5.8 mph SE9.3 kmh SE 11.5 mph18.5 kmh 29.95 in1014.2 mb - 0.00 in0.0 mm 0.00 in0.0 mm
01:20 PM 88.0°F31.1°C 61.3°F16.3°C 41% 9.2 mph ESE14.8 kmh ESE 18.4 mph29.6 kmh 29.96 in1014.6 mb - 0.00 in0.0 mm 0.00 in0.0 mm
01:10 PM 88.0°F31.1°C 62.0°F16.7°C 42% 6.9 mph SE11.1 kmh SE 10.4 mph16.7 kmh 29.96 in1014.6 mb - 0.00 in0.0 mm 0.00 in0.0 mm
01:00 PM 87.8°F31.0°C 61.9°F16.6°C 42% 5.8 mph SE9.3 kmh SE 10.4 mph16.7 kmh 29.96 in1014.6 mb - 0.00 in0.0 mm 0.00 in0.0 mm
12:50 PM 87.5°F30.8°C 62.9°F17.2°C 44% 6.9 mph ESE11.1 kmh ESE 11.5 mph18.5 kmh 29.97 in1014.9 mb - 0.00 in0.0 mm 0.00 in0.0 mm
12:40 PM 87.0°F30.6°C 63.1°F17.3°C 45% 6.9 mph SE11.1 kmh SE 6.9 mph11.1 kmh 29.97 in1014.9 mb - 0.00 in0.0 mm 0.00 in0.0 mm
12:30 PM 87.1°F30.6°C 63.2°F17.3°C 45% 8.1 mph SE13.0 kmh SE 10.4 mph16.7 kmh 29.98 in1015.2 mb - 0.00 in0.0 mm 0.00 in0.0 mm
12:20 PM 87.0°F30.6°C 63.1°F17.3°C 45% 9.2 mph ESE14.8 kmh ESE 12.7 mph20.4 kmh 29.98 in1015.2 mb - 0.00 in0.0 mm 0.00 in0.0 mm
12:10 PM 86.4°F30.2°C 63.8°F17.7°C 47% 6.9 mph SSE11.1 kmh SSE 11.5 mph18.5 kmh 29.98 in1015.2 mb - 0.00 in0.0 mm 0.00 in0.0 mm
12:00 PM 86.4°F30.2°C 64.4°F18.0°C 48% 8.1 mph E13.0 kmh E 12.7 mph20.4 kmh 29.98 in1015.2 mb - 0.00 in0.0 mm 0.00 in0.0 mm
11:50 AM 85.3°F29.6°C 63.3°F17.4°C 48% 5.8 mph SE9.3 kmh SE 9.2 mph14.8 kmh 29.99 in1015.6 mb - 0.00 in0.0 mm 0.00 in0.0 mm
11:40 AM 84.6°F29.2°C 65.0°F18.3°C 52% 4.6 mph E7.4 kmh E 9.2 mph14.8 kmh 29.99 in1015.6 mb - 0.00 in0.0 mm 0.00 in0.0 mm
11:30 AM 84.3°F29.1°C 64.8°F18.2°C 52% 5.8 mph SE9.3 kmh SE 10.4 mph16.7 kmh 30.00 in1015.9 mb - 0.00 in0.0 mm 0.00 in0.0 mm
11:20 AM 84.0°F28.9°C 66.1°F18.9°C 55% 3.5 mph SE5.6 kmh SE 6.9 mph11.1 kmh 30.00 in1015.9 mb - 0.00 in0.0 mm 0.00 in0.0 mm
11:10 AM 83.7°F28.7°C 65.8°F18.8°C 55% 3.5 mph SE5.6 kmh SE 8.1 mph13.0 kmh 30.01 in1016.3 mb - 0.00 in0.0 mm 0.00 in0.0 mm
11:00 AM 83.4°F28.6°C 66.1°F18.9°C 56% 2.3 mph ENE3.7 kmh ENE 3.5 mph5.6 kmh 30.01 in1016.3 mb - 0.00 in0.0 mm 0.00 in0.0 mm
10:50 AM 82.4°F28.0°C 66.1°F18.9°C 58% 3.5 mph SE5.6 kmh SE 8.1 mph13.0 kmh 30.01 in1016.3 mb - 0.00 in0.0 mm 0.00 in0.0 mm
10:40 AM 81.8°F27.7°C 65.6°F18.7°C 58% 2.3 mph SE3.7 kmh SE 6.9 mph11.1 kmh 30.02 in1016.6 mb - 0.00 in0.0 mm 0.00 in0.0 mm
10:30 AM 81.4°F27.4°C 66.2°F19.0°C 60% 3.5 mph ESE5.6 kmh ESE 5.8 mph9.3 kmh 30.02 in1016.6 mb - 0.00 in0.0 mm 0.00 in0.0 mm
10:20 AM 80.1°F26.7°C 65.4°F18.6°C 61% 3.5 mph SE5.6 kmh SE 12.7 mph20.4 kmh 30.02 in1016.6 mb - 0.00 in0.0 mm 0.00 in0.0 mm
10:10 AM 79.2°F26.2°C 65.1°F18.4°C 62% 4.6 mph ESE7.4 kmh ESE 8.1 mph13.0 kmh 30.03 in1016.9 mb - 0.00 in0.0 mm 0.00 in0.0 mm
10:00 AM 78.6°F25.9°C 65.8°F18.8°C 65% 2.3 mph E3.7 kmh E 10.4 mph16.7 kmh 30.04 in1017.3 mb - 0.00 in0.0 mm 0.00 in0.0 mm
09:50 AM 78.2°F25.7°C 65.5°F18.6°C 65% 1.2 mph SE1.9 kmh SE 6.9 mph11.1 kmh 30.04 in1017.3 mb - 0.00 in0.0 mm 0.00 in0.0 mm
09:40 AM 77.2°F25.1°C 65.8°F18.8°C 68% 1.2 mph ESE1.9 kmh ESE 4.6 mph7.4 kmh 30.04 in1017.3 mb - 0.00 in0.0 mm 0.00 in0.0 mm
09:30 AM 76.2°F24.6°C 65.3°F18.5°C 69% Calm Calm 4.6 mph7.4 kmh 30.04 in1017.3 mb - 0.00 in0.0 mm 0.00 in0.0 mm
09:20 AM 75.7°F24.3°C 65.2°F18.4°C 70% 1.2 mph E1.9 kmh E 3.5 mph5.6 kmh 30.04 in1017.3 mb - 0.00 in0.0 mm 0.00 in0.0 mm
09:10 AM 75.1°F23.9°C 65.5°F18.6°C 72% 1.2 mph E1.9 kmh E 6.9 mph11.1 kmh 30.05 in1017.6 mb - 0.00 in0.0 mm 0.00 in0.0 mm
09:00 AM 74.4°F23.6°C 65.6°F18.7°C 74% Calm Calm -- 30.05 in1017.6 mb - 0.00 in0.0 mm 0.00 in0.0 mm
08:50 AM 73.7°F23.2°C 65.3°F18.5°C 75% Calm Calm 4.6 mph7.4 kmh 30.05 in1017.6 mb - 0.00 in0.0 mm 0.00 in0.0 mm
08:40 AM 72.8°F22.7°C 65.1°F18.4°C 77% 3.5 mph SE5.6 kmh SE 8.1 mph13.0 kmh 30.05 in1017.6 mb - 0.00 in0.0 mm 0.00 in0.0 mm
08:30 AM 72.1°F22.3°C 64.8°F18.2°C 78% 3.5 mph ESE5.6 kmh ESE 10.4 mph16.7 kmh 30.05 in1017.6 mb - 0.00 in0.0 mm 0.00 in0.0 mm
08:20 AM 71.3°F21.8°C 65.1°F18.4°C 81% Calm Calm 6.9 mph11.1 kmh 30.06 in1017.9 mb - 0.00 in0.0 mm 0.00 in0.0 mm
08:10 AM 69.7°F20.9°C 65.9°F18.8°C 88% Calm Calm 4.6 mph7.4 kmh 30.06 in1017.9 mb - 0.00 in0.0 mm 0.00 in0.0 mm
08:00 AM 67.7°F19.8°C 65.6°F18.7°C 93% 1.2 mph E1.9 kmh E 4.6 mph7.4 kmh 30.06 in1017.9 mb - 0.00 in0.0 mm 0.00 in0.0 mm
07:50 AM 66.2°F19.0°C 65.0°F18.3°C 96% Calm Calm 4.6 mph7.4 kmh 30.06 in1017.9 mb - 0.00 in0.0 mm 0.00 in0.0 mm
07:40 AM 64.7°F18.2°C 63.9°F17.7°C 97% Calm Calm -- 30.07 in1018.3 mb - 0.00 in0.0 mm 0.00 in0.0 mm
07:30 AM 63.5°F17.5°C 62.7°F17.1°C 97% Calm Calm -- 30.07 in1018.3 mb - 0.00 in0.0 mm 0.00 in0.0 mm
07:20 AM 62.8°F17.1°C 61.9°F16.6°C 97% Calm Calm -- 30.07 in1018.3 mb - 0.00 in0.0 mm 0.00 in0.0 mm
07:10 AM 61.8°F16.6°C 60.9°F16.1°C 97% Calm Calm -- 30.07 in1018.3 mb - 0.00 in0.0 mm 0.00 in0.0 mm
07:00 AM 60.7°F15.9°C 59.8°F15.4°C 97% Calm Calm -- 30.08 in1018.6 mb - 0.00 in0.0 mm 0.00 in0.0 mm
06:50 AM 60.2°F15.7°C 59.3°F15.2°C 97% Calm Calm -- 30.08 in1018.6 mb - 0.00 in0.0 mm 0.00 in0.0 mm
06:40 AM 59.5°F15.3°C 58.6°F14.8°C 97% Calm Calm -- 30.09 in1019.0 mb - 0.00 in0.0 mm 0.00 in0.0 mm
06:30 AM 59.0°F15.0°C 58.1°F14.5°C 97% Calm Calm -- 30.09 in1019.0 mb - 0.00 in0.0 mm 0.00 in0.0 mm
06:20 AM 58.5°F14.7°C 57.7°F14.3°C 97% Calm Calm -- 30.09 in1019.0 mb - 0.00 in0.0 mm 0.00 in0.0 mm
06:10 AM 58.0°F14.4°C 56.9°F13.8°C 96% Calm Calm -- 30.09 in1019.0 mb - 0.00 in0.0 mm 0.00 in0.0 mm
06:00 AM 57.6°F14.2°C 56.5°F13.6°C 96% Calm Calm -- 30.10 in1019.3 mb - 0.00 in0.0 mm 0.00 in0.0 mm
05:50 AM 57.2°F14.0°C 56.1°F13.4°C 96% Calm Calm -- 30.10 in1019.3 mb - 0.00 in0.0 mm 0.00 in0.0 mm
05:40 AM 57.1°F13.9°C 56.0°F13.3°C 96% Calm Calm -- 30.10 in1019.3 mb - 0.00 in0.0 mm 0.00 in0.0 mm
05:30 AM 56.9°F13.8°C 55.8°F13.2°C 96% Calm Calm -- 30.11 in1019.6 mb - 0.00 in0.0 mm 0.00 in0.0 mm
05:20 AM 56.7°F13.7°C 55.6°F13.1°C 96% Calm Calm -- 30.10 in1019.3 mb - 0.00 in0.0 mm 0.00 in0.0 mm
05:10 AM 56.7°F13.7°C 55.6°F13.1°C 96% Calm Calm -- 30.11 in1019.6 mb - 0.00 in0.0 mm 0.00 in0.0 mm
05:00 AM 56.8°F13.8°C 55.4°F13.0°C 95% Calm Calm -- 30.11 in1019.6 mb - 0.00 in0.0 mm 0.00 in0.0 mm
04:50 AM 56.9°F13.8°C 55.5°F13.1°C 95% Calm Calm -- 30.11 in1019.6 mb - 0.00 in0.0 mm 0.00 in0.0 mm
04:40 AM 56.9°F13.8°C 55.5°F13.1°C 95% Calm Calm -- 30.11 in1019.6 mb - 0.00 in0.0 mm 0.00 in0.0 mm
04:30 AM 56.9°F13.8°C 55.5°F13.1°C 95% Calm Calm -- 30.11 in1019.6 mb - 0.00 in0.0 mm 0.00 in0.0 mm
04:20 AM 57.1°F13.9°C 55.7°F13.2°C 95% Calm Calm -- 30.11 in1019.6 mb - 0.00 in0.0 mm 0.00 in0.0 mm
04:10 AM 57.4°F14.1°C 56.0°F13.3°C 95% Calm Calm -- 30.11 in1019.6 mb - 0.00 in0.0 mm 0.00 in0.0 mm
04:00 AM 57.7°F14.3°C 56.3°F13.5°C 95% Calm Calm -- 30.11 in1019.6 mb - 0.00 in0.0 mm 0.00 in0.0 mm
03:50 AM 57.9°F14.4°C 56.5°F13.6°C 95% Calm Calm -- 30.11 in1019.6 mb - 0.00 in0.0 mm 0.00 in0.0 mm
03:40 AM 58.2°F14.6°C 56.8°F13.8°C 95% Calm Calm -- 30.11 in1019.6 mb - 0.00 in0.0 mm 0.00 in0.0 mm
03:30 AM 58.5°F14.7°C 57.1°F13.9°C 95% Calm Calm -- 30.12 in1020.0 mb - 0.00 in0.0 mm 0.00 in0.0 mm
03:20 AM 58.6°F14.8°C 57.2°F14.0°C 95% Calm Calm -- 30.12 in1020.0 mb - 0.00 in0.0 mm 0.00 in0.0 mm
03:10 AM 58.8°F14.9°C 57.4°F14.1°C 95% Calm Calm -- 30.12 in1020.0 mb - 0.00 in0.0 mm 0.00 in0.0 mm
03:00 AM 59.0°F15.0°C 57.6°F14.2°C 95% Calm Calm -- 30.12 in1020.0 mb - 0.00 in0.0 mm 0.00 in0.0 mm
02:50 AM 59.1°F15.1°C 57.7°F14.3°C 95% Calm Calm -- 30.13 in1020.3 mb - 0.00 in0.0 mm 0.00 in0.0 mm
02:40 AM 59.3°F15.2°C 57.9°F14.4°C 95% Calm Calm -- 30.13 in1020.3 mb - 0.00 in0.0 mm 0.00 in0.0 mm
02:30 AM 59.5°F15.3°C 58.1°F14.5°C 95% Calm Calm -- 30.13 in1020.3 mb - 0.00 in0.0 mm 0.00 in0.0 mm
02:20 AM 59.6°F15.3°C 58.2°F14.6°C 95% Calm Calm -- 30.13 in1020.3 mb - 0.00 in0.0 mm 0.00 in0.0 mm
02:10 AM 59.8°F15.4°C 58.4°F14.7°C 95% Calm Calm -- 30.14 in1020.7 mb - 0.00 in0.0 mm 0.00 in0.0 mm
02:00 AM 59.9°F15.5°C 58.5°F14.7°C 95% Calm Calm -- 30.14 in1020.7 mb - 0.00 in0.0 mm 0.00 in0.0 mm
01:50 AM 60.2°F15.7°C 58.7°F14.8°C 95% Calm Calm -- 30.14 in1020.7 mb - 0.00 in0.0 mm 0.00 in0.0 mm
01:40 AM 60.4°F15.8°C 58.9°F14.9°C 95% Calm Calm -- 30.14 in1020.7 mb - 0.00 in0.0 mm 0.00 in0.0 mm
01:30 AM 60.4°F15.8°C 58.7°F14.8°C 94% Calm Calm -- 30.14 in1020.7 mb - 0.00 in0.0 mm 0.00 in0.0 mm
01:20 AM 60.6°F15.9°C 58.9°F14.9°C 94% Calm Calm -- 30.14 in1020.7 mb - 0.00 in0.0 mm 0.00 in0.0 mm
01:10 AM 60.8°F16.0°C 59.1°F15.1°C 94% Calm Calm -- 30.14 in1020.7 mb - 0.00 in0.0 mm 0.00 in0.0 mm
01:00 AM 61.1°F16.2°C 59.4°F15.2°C 94% Calm Calm -- 30.14 in1020.7 mb - 0.00 in0.0 mm 0.00 in0.0 mm
12:50 AM 61.4°F16.3°C 59.7°F15.4°C 94% Calm Calm -- 30.14 in1020.7 mb - 0.00 in0.0 mm 0.00 in0.0 mm
12:40 AM 61.6°F16.4°C 59.9°F15.5°C 94% Calm Calm -- 30.15 in1021.0 mb - 0.00 in0.0 mm 0.00 in0.0 mm
12:30 AM 61.7°F16.5°C 60.0°F15.6°C 94% Calm Calm -- 30.15 in1021.0 mb - 0.00 in0.0 mm 0.00 in0.0 mm
12:20 AM 61.8°F16.6°C 60.1°F15.6°C 94% Calm Calm -- 30.15 in1021.0 mb - 0.00 in0.0 mm 0.00 in0.0 mm
12:10 AM 62.0°F16.7°C 60.3°F15.7°C 94% Calm Calm -- 30.15 in1021.0 mb - 0.00 in0.0 mm 0.00 in0.0 mm
12:00 AM 62.1°F16.7°C 60.3°F15.7°C 94% Calm Calm -- 30.15 in1021.0 mb - 0.00 in0.0 mm 0.00 in0.0 mm